West Woodward Airport
KWWR : now visible

Airfield :











YOU CAN JOIN US ON...

 
LOGIN :

Register | Disclaimer

   EN    FR    IT 

 









Legend :    VFR   Marginal VFR   IFR   Intensive IFR   Very Intensive IFR
Visi :
Ceiling :
>= 8 km
>= 3000ft
5 to 8 km
1000 to 3000 ft
1500m to 5 km
500 to 1000 ft
800 to 1500m
200 to 500 ft
< 800m
< 200 ft
Symbols :   Thunderstorms  Fog  Heavy snow  Heavy precipitations  Wind > 20 kt







- Airport Elevation : 2189 ft


KWWR - West Woodward

CURRENT METAR :
  • 192215Z AUTO 11007KT 10SM CLR 22/05 A2996 RMK AO2

EXPIRED METARs :
  • 192155Z AUTO 00000KT 10SM CLR 22/05 A2997 RMK AO2
  • 192135Z AUTO 14004KT 10SM CLR 22/04 A2998 RMK AO2
  • 192115Z AUTO 00000KT 10SM CLR 22/03 A2999 RMK AO2
  • 192055Z AUTO 16006KT 10SM CLR 22/03 A3000 RMK AO2
  • 192035Z AUTO 00000KT 10SM CLR 21/03 A3001 RMK AO2
  • 192015Z AUTO 11003KT 10SM CLR 21/03 A3002 RMK AO2
  • 191955Z AUTO 00000KT 10SM CLR 21/03 A3003 RMK AO2

TAF KWWR
Valid from the 19 at 18:00 until the 20 at 18:00 UTC


191735Z 1918/2018 04007KT P6SM SCT250
FM192200 14010KT P6SM BKN250
FM200600 12014G20KT P6SM BKN100 OVC250
FM201200 09014G22KT 3SM -TSRA BKN025CB OVC100
KZKC FIR / North America



MET'MAP, your aeronautical weather chart ! - Copyright ORBIFLY December 2007 - Disclaimer

ORBIFLY MET'MAP TEAM :

Programming & Development : Alexandra Zaïnal
Concept & Development : Baudouin d'Aumeries
Co-Development & Prog : Marc-Olivier Méhu
Technical & hardware support : Manuel Goepfert

Contact : metmap@orbifly.com




SOURCES & CREDITS :

   NOAA       Earth
Advisory